sensor_id;sensor_type;location;lat;lon;timestamp;temperature;humidity
37460;DHT22;23318;50.966;5.284;2022-10-16T00:01:34;13.90;99.90
37460;DHT22;23318;50.966;5.284;2022-10-16T00:04:01;14.00;99.90
37460;DHT22;23318;50.966;5.284;2022-10-16T00:06:28;14.10;99.90
37460;DHT22;23318;50.966;5.284;2022-10-16T00:08:54;14.30;99.90
37460;DHT22;23318;50.966;5.284;2022-10-16T00:11:30;14.20;99.90
37460;DHT22;23318;50.966;5.284;2022-10-16T00:14:00;14.30;99.90
37460;DHT22;23318;50.966;5.284;2022-10-16T00:16:26;14.10;99.90
37460;DHT22;23318;50.966;5.284;2022-10-16T00:18:52;14.30;99.90
37460;DHT22;23318;50.966;5.284;2022-10-16T00:21:21;14.40;99.90
37460;DHT22;23318;50.966;5.284;2022-10-16T00:23:50;14.50;99.90
37460;DHT22;23318;50.966;5.284;2022-10-16T00:26:17;14.40;99.90
37460;DHT22;23318;50.966;5.284;2022-10-16T00:28:46;14.20;99.90
37460;DHT22;23318;50.966;5.284;2022-10-16T00:31:12;13.90;99.90
37460;DHT22;23318;50.966;5.284;2022-10-16T00:33:38;13.90;99.90
37460;DHT22;23318;50.966;5.284;2022-10-16T00:36:05;13.90;99.90
37460;DHT22;23318;50.966;5.284;2022-10-16T00:38:32;14.00;99.90
37460;DHT22;23318;50.966;5.284;2022-10-16T00:40:58;14.10;99.90
37460;DHT22;23318;50.966;5.284;2022-10-16T00:43:45;14.20;99.90
37460;DHT22;23318;50.966;5.284;2022-10-16T00:48:48;13.60;99.90
37460;DHT22;23318;50.966;5.284;2022-10-16T00:51:15;13.60;99.90
37460;DHT22;23318;50.966;5.284;2022-10-16T00:53:43;13.60;99.90
37460;DHT22;23318;50.966;5.284;2022-10-16T00:56:09;13.60;99.90
37460;DHT22;23318;50.966;5.284;2022-10-16T00:58:35;13.60;99.90
37460;DHT22;23318;50.966;5.284;2022-10-16T01:01:01;13.60;99.90
37460;DHT22;23318;50.966;5.284;2022-10-16T01:03:28;13.50;99.90
37460;DHT22;23318;50.966;5.284;2022-10-16T01:08:45;13.40;99.90
37460;DHT22;23318;50.966;5.284;2022-10-16T01:11:24;13.40;99.90
37460;DHT22;23318;50.966;5.284;2022-10-16T01:13:55;13.50;99.90
37460;DHT22;23318;50.966;5.284;2022-10-16T01:22:19;13.50;99.90
37460;DHT22;23318;50.966;5.284;2022-10-16T01:24:50;13.40;99.90
37460;DHT22;23318;50.966;5.284;2022-10-16T01:27:22;13.50;99.90
37460;DHT22;23318;50.966;5.284;2022-10-16T01:35:03;13.60;99.90
37460;DHT22;23318;50.966;5.284;2022-10-16T01:40:29;13.40;99.90
37460;DHT22;23318;50.966;5.284;2022-10-16T01:43:08;13.30;99.90
37460;DHT22;23318;50.966;5.284;2022-10-16T01:45:37;13.30;99.90
37460;DHT22;23318;50.966;5.284;2022-10-16T01:48:05;13.30;99.90
37460;DHT22;23318;50.966;5.284;2022-10-16T01:50:37;13.20;99.90
37460;DHT22;23318;50.966;5.284;2022-10-16T01:53:05;13.20;99.90
37460;DHT22;23318;50.966;5.284;2022-10-16T01:55:37;13.30;99.90
37460;DHT22;23318;50.966;5.284;2022-10-16T01:58:04;13.30;99.90
37460;DHT22;23318;50.966;5.284;2022-10-16T02:00:31;13.30;99.90
37460;DHT22;23318;50.966;5.284;2022-10-16T02:02:58;13.20;99.90
37460;DHT22;23318;50.966;5.284;2022-10-16T02:05:41;13.20;99.90
37460;DHT22;23318;50.966;5.284;2022-10-16T02:08:08;13.50;99.90
37460;DHT22;23318;50.966;5.284;2022-10-16T02:10:35;13.60;99.90
37460;DHT22;23318;50.966;5.284;2022-10-16T02:13:21;13.40;99.90
37460;DHT22;23318;50.966;5.284;2022-10-16T02:15:48;13.70;99.90
37460;DHT22;23318;50.966;5.284;2022-10-16T02:18:14;13.70;99.90
37460;DHT22;23318;50.966;5.284;2022-10-16T02:20:57;13.60;99.90
37460;DHT22;23318;50.966;5.284;2022-10-16T02:26:47;13.40;99.90
37460;DHT22;23318;50.966;5.284;2022-10-16T02:29:17;13.30;99.90
37460;DHT22;23318;50.966;5.284;2022-10-16T02:31:49;13.30;99.90
37460;DHT22;23318;50.966;5.284;2022-10-16T02:34:18;13.40;99.90
37460;DHT22;23318;50.966;5.284;2022-10-16T02:36:46;13.40;99.90
37460;DHT22;23318;50.966;5.284;2022-10-16T02:39:13;13.60;99.90
37460;DHT22;23318;50.966;5.284;2022-10-16T02:41:39;13.50;99.90
37460;DHT22;23318;50.966;5.284;2022-10-16T02:44:05;13.70;99.90
37460;DHT22;23318;50.966;5.284;2022-10-16T02:46:30;13.90;99.90
37460;DHT22;23318;50.966;5.284;2022-10-16T02:48:56;13.70;99.90
37460;DHT22;23318;50.966;5.284;2022-10-16T02:51:22;13.70;99.90
37460;DHT22;23318;50.966;5.284;2022-10-16T02:53:47;13.80;99.90
37460;DHT22;23318;50.966;5.284;2022-10-16T02:56:13;13.50;99.90
37460;DHT22;23318;50.966;5.284;2022-10-16T02:58:39;13.50;99.90
37460;DHT22;23318;50.966;5.284;2022-10-16T03:01:04;13.40;99.90
37460;DHT22;23318;50.966;5.284;2022-10-16T03:03:30;13.30;99.90
37460;DHT22;23318;50.966;5.284;2022-10-16T03:05:55;13.30;99.90
37460;DHT22;23318;50.966;5.284;2022-10-16T03:08:21;13.40;99.90
37460;DHT22;23318;50.966;5.284;2022-10-16T03:10:49;13.50;99.90
37460;DHT22;23318;50.966;5.284;2022-10-16T03:13:15;13.50;99.90
37460;DHT22;23318;50.966;5.284;2022-10-16T03:15:41;13.60;99.90
37460;DHT22;23318;50.966;5.284;2022-10-16T03:18:06;13.40;99.90
37460;DHT22;23318;50.966;5.284;2022-10-16T03:20:32;13.10;99.90
37460;DHT22;23318;50.966;5.284;2022-10-16T03:22:58;13.20;99.90
37460;DHT22;23318;50.966;5.284;2022-10-16T03:25:24;13.30;99.90
37460;DHT22;23318;50.966;5.284;2022-10-16T03:27:50;13.30;99.90
37460;DHT22;23318;50.966;5.284;2022-10-16T03:30:16;13.30;99.90
37460;DHT22;23318;50.966;5.284;2022-10-16T03:32:43;13.20;99.90
37460;DHT22;23318;50.966;5.284;2022-10-16T03:35:09;13.30;99.90
37460;DHT22;23318;50.966;5.284;2022-10-16T03:37:34;13.40;99.90
37460;DHT22;23318;50.966;5.284;2022-10-16T03:40:01;13.60;99.90
37460;DHT22;23318;50.966;5.284;2022-10-16T03:42:26;13.60;99.90
37460;DHT22;23318;50.966;5.284;2022-10-16T03:44:52;13.40;99.90
37460;DHT22;23318;50.966;5.284;2022-10-16T03:47:18;13.30;99.90
37460;DHT22;23318;50.966;5.284;2022-10-16T03:49:47;13.30;99.90
37460;DHT22;23318;50.966;5.284;2022-10-16T03:52:13;13.00;99.90
37460;DHT22;23318;50.966;5.284;2022-10-16T03:54:39;13.10;99.90
37460;DHT22;23318;50.966;5.284;2022-10-16T03:57:04;12.90;99.90
37460;DHT22;23318;50.966;5.284;2022-10-16T03:59:30;13.10;99.90
37460;DHT22;23318;50.966;5.284;2022-10-16T04:01:56;13.00;99.90
37460;DHT22;23318;50.966;5.284;2022-10-16T04:04:21;13.00;99.90
37460;DHT22;23318;50.966;5.284;2022-10-16T04:06:47;13.10;99.90
37460;DHT22;23318;50.966;5.284;2022-10-16T04:09:12;13.10;99.90
37460;DHT22;23318;50.966;5.284;2022-10-16T04:11:38;13.10;99.90
37460;DHT22;23318;50.966;5.284;2022-10-16T04:14:04;13.00;99.90
37460;DHT22;23318;50.966;5.284;2022-10-16T04:16:30;13.10;99.90
37460;DHT22;23318;50.966;5.284;2022-10-16T04:18:55;13.10;99.90
37460;DHT22;23318;50.966;5.284;2022-10-16T04:21:21;13.30;99.90
37460;DHT22;23318;50.966;5.284;2022-10-16T04:23:47;13.30;99.90
37460;DHT22;23318;50.966;5.284;2022-10-16T04:26:14;13.10;99.90
37460;DHT22;23318;50.966;5.284;2022-10-16T04:28:39;13.10;99.90
37460;DHT22;23318;50.966;5.284;2022-10-16T04:31:06;13.30;99.90
37460;DHT22;23318;50.966;5.284;2022-10-16T04:33:32;13.30;99.90
37460;DHT22;23318;50.966;5.284;2022-10-16T04:35:59;13.40;99.90
37460;DHT22;23318;50.966;5.284;2022-10-16T04:38:25;13.50;99.90
37460;DHT22;23318;50.966;5.284;2022-10-16T04:40:51;13.70;99.90
37460;DHT22;23318;50.966;5.284;2022-10-16T04:43:17;13.60;99.90
37460;DHT22;23318;50.966;5.284;2022-10-16T04:45:43;13.60;99.90
37460;DHT22;23318;50.966;5.284;2022-10-16T04:48:09;13.50;99.90
37460;DHT22;23318;50.966;5.284;2022-10-16T04:50:34;13.40;99.90
37460;DHT22;23318;50.966;5.284;2022-10-16T04:53:00;13.20;99.90
37460;DHT22;23318;50.966;5.284;2022-10-16T04:55:26;13.30;99.90
37460;DHT22;23318;50.966;5.284;2022-10-16T04:57:51;13.20;99.90
37460;DHT22;23318;50.966;5.284;2022-10-16T05:00:17;13.10;99.90
37460;DHT22;23318;50.966;5.284;2022-10-16T05:02:43;13.10;99.90
37460;DHT22;23318;50.966;5.284;2022-10-16T05:05:09;13.20;99.90
37460;DHT22;23318;50.966;5.284;2022-10-16T05:07:34;13.20;99.90
37460;DHT22;23318;50.966;5.284;2022-10-16T05:10:00;13.20;99.90
37460;DHT22;23318;50.966;5.284;2022-10-16T05:12:26;13.20;99.90
37460;DHT22;23318;50.966;5.284;2022-10-16T05:14:51;13.10;99.90
37460;DHT22;23318;50.966;5.284;2022-10-16T05:17:17;13.10;99.90
37460;DHT22;23318;50.966;5.284;2022-10-16T05:19:43;13.00;99.90
37460;DHT22;23318;50.966;5.284;2022-10-16T05:22:09;13.00;99.90
37460;DHT22;23318;50.966;5.284;2022-10-16T05:24:34;13.10;99.90
37460;DHT22;23318;50.966;5.284;2022-10-16T05:27:00;13.00;99.90
37460;DHT22;23318;50.966;5.284;2022-10-16T05:29:25;13.00;99.90
37460;DHT22;23318;50.966;5.284;2022-10-16T05:31:54;13.00;99.90
37460;DHT22;23318;50.966;5.284;2022-10-16T05:34:20;13.00;99.90
37460;DHT22;23318;50.966;5.284;2022-10-16T05:36:46;13.00;99.90
37460;DHT22;23318;50.966;5.284;2022-10-16T05:39:13;13.00;99.90
37460;DHT22;23318;50.966;5.284;2022-10-16T05:41:39;13.00;99.90
37460;DHT22;23318;50.966;5.284;2022-10-16T05:44:05;13.00;99.90
37460;DHT22;23318;50.966;5.284;2022-10-16T05:46:32;12.90;99.90
37460;DHT22;23318;50.966;5.284;2022-10-16T05:48:57;12.90;99.90
37460;DHT22;23318;50.966;5.284;2022-10-16T05:51:23;12.90;99.90
37460;DHT22;23318;50.966;5.284;2022-10-16T05:53:49;13.00;99.90
37460;DHT22;23318;50.966;5.284;2022-10-16T05:56:15;12.90;99.90
37460;DHT22;23318;50.966;5.284;2022-10-16T05:58:41;13.00;99.90
37460;DHT22;23318;50.966;5.284;2022-10-16T06:01:13;12.90;99.90
37460;DHT22;23318;50.966;5.284;2022-10-16T06:03:39;12.90;99.90
37460;DHT22;23318;50.966;5.284;2022-10-16T06:06:16;12.90;99.90
37460;DHT22;23318;50.966;5.284;2022-10-16T06:08:44;13.00;99.90
37460;DHT22;23318;50.966;5.284;2022-10-16T06:11:13;12.90;99.90
37460;DHT22;23318;50.966;5.284;2022-10-16T06:13:39;12.90;99.90
37460;DHT22;23318;50.966;5.284;2022-10-16T06:16:07;12.80;99.90
37460;DHT22;23318;50.966;5.284;2022-10-16T06:18:32;12.80;99.90
37460;DHT22;23318;50.966;5.284;2022-10-16T06:20:58;12.80;99.90
37460;DHT22;23318;50.966;5.284;2022-10-16T06:23:24;12.90;99.90
37460;DHT22;23318;50.966;5.284;2022-10-16T06:25:50;12.80;99.90
37460;DHT22;23318;50.966;5.284;2022-10-16T06:28:16;12.90;99.90
37460;DHT22;23318;50.966;5.284;2022-10-16T06:30:42;12.90;99.90
37460;DHT22;23318;50.966;5.284;2022-10-16T06:33:11;12.80;99.90
37460;DHT22;23318;50.966;5.284;2022-10-16T06:35:37;12.80;99.90
37460;DHT22;23318;50.966;5.284;2022-10-16T06:38:03;12.90;99.90
37460;DHT22;23318;50.966;5.284;2022-10-16T06:40:29;12.90;99.90
37460;DHT22;23318;50.966;5.284;2022-10-16T06:42:55;12.90;99.90
37460;DHT22;23318;50.966;5.284;2022-10-16T06:45:21;12.90;99.90
37460;DHT22;23318;50.966;5.284;2022-10-16T06:47:46;12.90;99.90
37460;DHT22;23318;50.966;5.284;2022-10-16T06:50:12;12.80;99.90
37460;DHT22;23318;50.966;5.284;2022-10-16T06:52:38;12.80;99.90
37460;DHT22;23318;50.966;5.284;2022-10-16T06:55:04;12.80;99.90
37460;DHT22;23318;50.966;5.284;2022-10-16T06:57:29;12.80;99.90
37460;DHT22;23318;50.966;5.284;2022-10-16T06:59:55;12.90;99.90
37460;DHT22;23318;50.966;5.284;2022-10-16T07:02:20;13.00;99.90
37460;DHT22;23318;50.966;5.284;2022-10-16T07:04:47;13.00;99.90
37460;DHT22;23318;50.966;5.284;2022-10-16T07:07:13;13.10;99.90
37460;DHT22;23318;50.966;5.284;2022-10-16T07:09:39;13.20;99.90
37460;DHT22;23318;50.966;5.284;2022-10-16T07:12:05;13.20;99.90
37460;DHT22;23318;50.966;5.284;2022-10-16T07:14:31;13.50;99.90
37460;DHT22;23318;50.966;5.284;2022-10-16T07:16:56;13.90;99.90
37460;DHT22;23318;50.966;5.284;2022-10-16T07:19:22;13.70;99.90
37460;DHT22;23318;50.966;5.284;2022-10-16T07:21:48;13.80;99.90
37460;DHT22;23318;50.966;5.284;2022-10-16T07:24:15;13.70;99.90
37460;DHT22;23318;50.966;5.284;2022-10-16T07:26:42;13.70;99.90
37460;DHT22;23318;50.966;5.284;2022-10-16T07:29:20;13.80;99.90
37460;DHT22;23318;50.966;5.284;2022-10-16T07:31:46;13.90;99.90
37460;DHT22;23318;50.966;5.284;2022-10-16T07:34:13;14.00;99.90
37460;DHT22;23318;50.966;5.284;2022-10-16T07:36:39;14.10;99.90
37460;DHT22;23318;50.966;5.284;2022-10-16T07:39:04;14.10;99.90
37460;DHT22;23318;50.966;5.284;2022-10-16T07:41:30;14.20;99.90
37460;DHT22;23318;50.966;5.284;2022-10-16T07:43:58;14.30;99.90
37460;DHT22;23318;50.966;5.284;2022-10-16T07:46:26;14.40;99.90
37460;DHT22;23318;50.966;5.284;2022-10-16T07:48:52;14.40;99.90
37460;DHT22;23318;50.966;5.284;2022-10-16T07:51:20;14.50;99.90
37460;DHT22;23318;50.966;5.284;2022-10-16T07:53:47;14.50;99.90
37460;DHT22;23318;50.966;5.284;2022-10-16T07:56:13;14.70;99.90
37460;DHT22;23318;50.966;5.284;2022-10-16T07:58:39;14.90;99.90
37460;DHT22;23318;50.966;5.284;2022-10-16T08:01:06;14.90;99.90
37460;DHT22;23318;50.966;5.284;2022-10-16T08:03:32;14.80;99.90
37460;DHT22;23318;50.966;5.284;2022-10-16T08:05:59;14.80;99.90
37460;DHT22;23318;50.966;5.284;2022-10-16T08:08:25;14.90;99.90
37460;DHT22;23318;50.966;5.284;2022-10-16T08:10:51;14.80;99.90
37460;DHT22;23318;50.966;5.284;2022-10-16T08:13:16;14.80;99.90
37460;DHT22;23318;50.966;5.284;2022-10-16T08:15:43;14.80;99.90
37460;DHT22;23318;50.966;5.284;2022-10-16T08:18:10;14.90;99.90
37460;DHT22;23318;50.966;5.284;2022-10-16T08:20:36;15.00;99.90
37460;DHT22;23318;50.966;5.284;2022-10-16T08:23:02;15.20;99.90
37460;DHT22;23318;50.966;5.284;2022-10-16T08:25:28;15.20;99.90
37460;DHT22;23318;50.966;5.284;2022-10-16T08:27:53;15.30;99.90
37460;DHT22;23318;50.966;5.284;2022-10-16T08:30:21;15.40;99.90
37460;DHT22;23318;50.966;5.284;2022-10-16T08:32:47;15.40;99.90
37460;DHT22;23318;50.966;5.284;2022-10-16T08:35:13;15.50;99.90
37460;DHT22;23318;50.966;5.284;2022-10-16T08:37:39;15.60;99.90
37460;DHT22;23318;50.966;5.284;2022-10-16T08:40:07;15.80;99.90
37460;DHT22;23318;50.966;5.284;2022-10-16T08:50:54;15.70;99.90
37460;DHT22;23318;50.966;5.284;2022-10-16T08:53:31;15.90;99.90
37460;DHT22;23318;50.966;5.284;2022-10-16T08:55:59;16.00;99.90
37460;DHT22;23318;50.966;5.284;2022-10-16T08:58:29;16.10;99.90
37460;DHT22;23318;50.966;5.284;2022-10-16T09:01:01;16.00;99.90
37460;DHT22;23318;50.966;5.284;2022-10-16T09:07:01;16.10;99.90
37460;DHT22;23318;50.966;5.284;2022-10-16T09:15:20;16.10;99.90
37460;DHT22;23318;50.966;5.284;2022-10-16T09:18:05;16.20;99.90
37460;DHT22;23318;50.966;5.284;2022-10-16T09:23:42;16.60;99.90
37460;DHT22;23318;50.966;5.284;2022-10-16T09:26:12;17.10;99.90
37460;DHT22;23318;50.966;5.284;2022-10-16T09:28:38;16.90;99.90
37460;DHT22;23318;50.966;5.284;2022-10-16T09:31:04;17.10;99.90
37460;DHT22;23318;50.966;5.284;2022-10-16T09:33:36;17.20;99.90
37460;DHT22;23318;50.966;5.284;2022-10-16T09:36:05;16.90;99.90
37460;DHT22;23318;50.966;5.284;2022-10-16T09:38:34;17.00;99.90
37460;DHT22;23318;50.966;5.284;2022-10-16T09:41:09;17.10;99.90
37460;DHT22;23318;50.966;5.284;2022-10-16T09:43:39;17.00;99.90
37460;DHT22;23318;50.966;5.284;2022-10-16T09:46:08;17.30;99.90
37460;DHT22;23318;50.966;5.284;2022-10-16T09:48:43;17.40;99.90
37460;DHT22;23318;50.966;5.284;2022-10-16T09:51:29;18.00;99.90
37460;DHT22;23318;50.966;5.284;2022-10-16T09:54:00;18.40;99.90
37460;DHT22;23318;50.966;5.284;2022-10-16T09:56:34;18.10;99.90
37460;DHT22;23318;50.966;5.284;2022-10-16T09:59:08;17.60;99.90
37460;DHT22;23318;50.966;5.284;2022-10-16T10:02:04;17.60;99.90
37460;DHT22;23318;50.966;5.284;2022-10-16T10:04:50;17.40;99.90
37460;DHT22;23318;50.966;5.284;2022-10-16T10:07:26;17.80;99.90
37460;DHT22;23318;50.966;5.284;2022-10-16T10:09:53;18.50;99.90
37460;DHT22;23318;50.966;5.284;2022-10-16T10:12:23;19.20;99.90
37460;DHT22;23318;50.966;5.284;2022-10-16T10:14:56;19.50;99.90
37460;DHT22;23318;50.966;5.284;2022-10-16T10:17:25;19.70;99.90
37460;DHT22;23318;50.966;5.284;2022-10-16T10:20:14;21.60;99.90
37460;DHT22;23318;50.966;5.284;2022-10-16T10:22:45;22.60;99.90
37460;DHT22;23318;50.966;5.284;2022-10-16T10:38:43;18.20;99.90
37460;DHT22;23318;50.966;5.284;2022-10-16T10:44:29;21.10;99.90
37460;DHT22;23318;50.966;5.284;2022-10-16T10:49:46;22.10;99.90
37460;DHT22;23318;50.966;5.284;2022-10-16T10:52:37;21.60;99.90
37460;DHT22;23318;50.966;5.284;2022-10-16T11:00:54;22.80;99.90
37460;DHT22;23318;50.966;5.284;2022-10-16T11:03:42;23.80;99.90
37460;DHT22;23318;50.966;5.284;2022-10-16T11:09:13;22.90;99.90
37460;DHT22;23318;50.966;5.284;2022-10-16T11:11:45;23.70;99.90
37460;DHT22;23318;50.966;5.284;2022-10-16T11:14:19;23.50;99.90
37460;DHT22;23318;50.966;5.284;2022-10-16T11:16:54;25.30;99.90
37460;DHT22;23318;50.966;5.284;2022-10-16T11:19:53;26.60;97.60
37460;DHT22;23318;50.966;5.284;2022-10-16T11:22:33;26.90;98.10
37460;DHT22;23318;50.966;5.284;2022-10-16T11:30:29;26.10;97.10
37460;DHT22;23318;50.966;5.284;2022-10-16T11:38:02;25.60;97.80
37460;DHT22;23318;50.966;5.284;2022-10-16T11:40:33;24.30;99.90
37460;DHT22;23318;50.966;5.284;2022-10-16T11:43:22;22.70;99.90
37460;DHT22;23318;50.966;5.284;2022-10-16T11:45:54;22.90;99.90
37460;DHT22;23318;50.966;5.284;2022-10-16T11:48:30;22.70;99.90
37460;DHT22;23318;50.966;5.284;2022-10-16T11:51:35;21.90;99.90
37460;DHT22;23318;50.966;5.284;2022-10-16T11:54:13;22.70;99.90
37460;DHT22;23318;50.966;5.284;2022-10-16T11:56:41;23.80;99.90
37460;DHT22;23318;50.966;5.284;2022-10-16T12:04:45;24.20;99.90
37460;DHT22;23318;50.966;5.284;2022-10-16T12:07:35;23.70;99.90
37460;DHT22;23318;50.966;5.284;2022-10-16T12:10:22;23.30;99.90
37460;DHT22;23318;50.966;5.284;2022-10-16T12:12:48;21.70;99.90
37460;DHT22;23318;50.966;5.284;2022-10-16T12:15:32;22.10;99.90
37460;DHT22;23318;50.966;5.284;2022-10-16T12:17:58;22.60;99.90
37460;DHT22;23318;50.966;5.284;2022-10-16T12:20:30;22.10;99.90
37460;DHT22;23318;50.966;5.284;2022-10-16T12:23:04;22.50;99.90
37460;DHT22;23318;50.966;5.284;2022-10-16T12:25:34;22.10;99.90
37460;DHT22;23318;50.966;5.284;2022-10-16T12:30:42;21.60;99.90
37460;DHT22;23318;50.966;5.284;2022-10-16T12:33:40;21.00;99.90
37460;DHT22;23318;50.966;5.284;2022-10-16T12:36:30;21.80;99.90
37460;DHT22;23318;50.966;5.284;2022-10-16T12:38:56;23.70;99.90
37460;DHT22;23318;50.966;5.284;2022-10-16T12:41:35;25.00;99.30
37460;DHT22;23318;50.966;5.284;2022-10-16T12:44:20;24.70;99.50
37460;DHT22;23318;50.966;5.284;2022-10-16T12:46:46;23.60;99.90
37460;DHT22;23318;50.966;5.284;2022-10-16T12:51:38;21.00;99.90
37460;DHT22;23318;50.966;5.284;2022-10-16T12:54:15;20.90;99.90
37460;DHT22;23318;50.966;5.284;2022-10-16T12:59:49;22.70;99.90
37460;DHT22;23318;50.966;5.284;2022-10-16T13:14:07;22.40;99.90
37460;DHT22;23318;50.966;5.284;2022-10-16T13:20:12;21.30;99.90
37460;DHT22;23318;50.966;5.284;2022-10-16T13:22:51;21.20;99.90
37460;DHT22;23318;50.966;5.284;2022-10-16T13:28:07;20.50;99.90
37460;DHT22;23318;50.966;5.284;2022-10-16T13:30:43;21.30;99.90
37460;DHT22;23318;50.966;5.284;2022-10-16T13:36:02;21.70;99.90
37460;DHT22;23318;50.966;5.284;2022-10-16T13:38:31;22.00;99.90
37460;DHT22;23318;50.966;5.284;2022-10-16T13:45:59;22.10;99.90
37460;DHT22;23318;50.966;5.284;2022-10-16T13:48:25;22.00;99.90
37460;DHT22;23318;50.966;5.284;2022-10-16T13:51:04;21.90;99.90
37460;DHT22;23318;50.966;5.284;2022-10-16T13:53:32;21.70;99.90
37460;DHT22;23318;50.966;5.284;2022-10-16T13:55:59;21.60;99.90
37460;DHT22;23318;50.966;5.284;2022-10-16T13:58:28;21.50;99.90
37460;DHT22;23318;50.966;5.284;2022-10-16T14:00:58;21.50;99.90
37460;DHT22;23318;50.966;5.284;2022-10-16T14:03:26;21.50;99.90
37460;DHT22;23318;50.966;5.284;2022-10-16T14:05:55;21.60;99.90
37460;DHT22;23318;50.966;5.284;2022-10-16T14:08:23;21.90;99.90
37460;DHT22;23318;50.966;5.284;2022-10-16T14:10:52;22.40;99.90
37460;DHT22;23318;50.966;5.284;2022-10-16T14:13:33;22.70;99.90
37460;DHT22;23318;50.966;5.284;2022-10-16T14:16:05;22.80;99.90
37460;DHT22;23318;50.966;5.284;2022-10-16T14:18:31;22.50;99.90
37460;DHT22;23318;50.966;5.284;2022-10-16T14:21:04;22.40;99.90
37460;DHT22;23318;50.966;5.284;2022-10-16T14:23:36;22.50;99.90
37460;DHT22;23318;50.966;5.284;2022-10-16T14:28:36;22.50;99.90
37460;DHT22;23318;50.966;5.284;2022-10-16T14:31:32;22.50;99.90
37460;DHT22;23318;50.966;5.284;2022-10-16T14:33:59;22.40;99.90
37460;DHT22;23318;50.966;5.284;2022-10-16T14:36:27;22.30;99.90
37460;DHT22;23318;50.966;5.284;2022-10-16T14:39:02;22.10;99.90
37460;DHT22;23318;50.966;5.284;2022-10-16T14:41:33;22.00;99.90
37460;DHT22;23318;50.966;5.284;2022-10-16T14:44:06;22.00;99.90
37460;DHT22;23318;50.966;5.284;2022-10-16T14:46:36;22.00;99.90
37460;DHT22;23318;50.966;5.284;2022-10-16T14:51:37;21.90;99.90
37460;DHT22;23318;50.966;5.284;2022-10-16T14:54:03;22.00;99.90
37460;DHT22;23318;50.966;5.284;2022-10-16T14:56:31;21.90;99.90
37460;DHT22;23318;50.966;5.284;2022-10-16T14:58:58;22.00;99.90
37460;DHT22;23318;50.966;5.284;2022-10-16T15:01:23;22.10;99.90
37460;DHT22;23318;50.966;5.284;2022-10-16T15:03:49;22.20;99.90
37460;DHT22;23318;50.966;5.284;2022-10-16T15:06:17;22.20;99.90
37460;DHT22;23318;50.966;5.284;2022-10-16T15:08:43;22.20;99.90
37460;DHT22;23318;50.966;5.284;2022-10-16T15:11:14;22.20;99.90
37460;DHT22;23318;50.966;5.284;2022-10-16T15:13:40;22.20;99.90
37460;DHT22;23318;50.966;5.284;2022-10-16T15:16:10;22.10;99.90
37460;DHT22;23318;50.966;5.284;2022-10-16T15:18:36;22.00;99.90
37460;DHT22;23318;50.966;5.284;2022-10-16T15:21:01;21.90;99.90
37460;DHT22;23318;50.966;5.284;2022-10-16T15:23:27;21.80;99.90
37460;DHT22;23318;50.966;5.284;2022-10-16T15:25:54;21.70;99.90
37460;DHT22;23318;50.966;5.284;2022-10-16T15:28:22;21.60;99.90
37460;DHT22;23318;50.966;5.284;2022-10-16T15:30:53;21.50;99.90
37460;DHT22;23318;50.966;5.284;2022-10-16T15:33:20;21.40;99.90
37460;DHT22;23318;50.966;5.284;2022-10-16T15:35:49;21.30;99.90
37460;DHT22;23318;50.966;5.284;2022-10-16T15:38:16;21.20;99.90
37460;DHT22;23318;50.966;5.284;2022-10-16T15:40:42;21.10;99.90
37460;DHT22;23318;50.966;5.284;2022-10-16T15:43:08;21.00;99.90
37460;DHT22;23318;50.966;5.284;2022-10-16T15:45:34;20.80;99.90
37460;DHT22;23318;50.966;5.284;2022-10-16T15:48:00;20.70;99.90
37460;DHT22;23318;50.966;5.284;2022-10-16T15:50:26;20.70;99.90
37460;DHT22;23318;50.966;5.284;2022-10-16T15:52:52;20.70;99.90
37460;DHT22;23318;50.966;5.284;2022-10-16T15:55:18;20.60;99.90
37460;DHT22;23318;50.966;5.284;2022-10-16T15:57:44;20.50;99.90
37460;DHT22;23318;50.966;5.284;2022-10-16T16:00:15;20.40;99.90
37460;DHT22;23318;50.966;5.284;2022-10-16T16:02:42;20.20;99.90
37460;DHT22;23318;50.966;5.284;2022-10-16T16:05:09;20.00;99.90
37460;DHT22;23318;50.966;5.284;2022-10-16T16:07:37;20.00;99.90
37460;DHT22;23318;50.966;5.284;2022-10-16T16:10:05;20.10;99.90
37460;DHT22;23318;50.966;5.284;2022-10-16T16:12:32;20.00;99.90
37460;DHT22;23318;50.966;5.284;2022-10-16T16:14:57;19.90;99.90
37460;DHT22;23318;50.966;5.284;2022-10-16T16:17:23;19.70;99.90
37460;DHT22;23318;50.966;5.284;2022-10-16T16:19:49;19.70;99.90
37460;DHT22;23318;50.966;5.284;2022-10-16T16:22:15;19.60;99.90
37460;DHT22;23318;50.966;5.284;2022-10-16T16:24:41;19.50;99.90
37460;DHT22;23318;50.966;5.284;2022-10-16T16:27:06;19.50;99.90
37460;DHT22;23318;50.966;5.284;2022-10-16T16:29:32;19.40;99.90
37460;DHT22;23318;50.966;5.284;2022-10-16T16:31:59;19.40;99.90
37460;DHT22;23318;50.966;5.284;2022-10-16T16:34:26;19.30;99.90
37460;DHT22;23318;50.966;5.284;2022-10-16T16:36:53;19.30;99.90
37460;DHT22;23318;50.966;5.284;2022-10-16T16:39:19;19.20;99.90
37460;DHT22;23318;50.966;5.284;2022-10-16T16:41:44;19.10;99.90
37460;DHT22;23318;50.966;5.284;2022-10-16T16:44:14;19.10;99.90
37460;DHT22;23318;50.966;5.284;2022-10-16T16:46:40;19.10;99.90
37460;DHT22;23318;50.966;5.284;2022-10-16T16:49:12;19.00;99.90
37460;DHT22;23318;50.966;5.284;2022-10-16T16:51:38;18.90;99.90
37460;DHT22;23318;50.966;5.284;2022-10-16T16:54:05;18.80;99.90
37460;DHT22;23318;50.966;5.284;2022-10-16T16:56:31;18.60;99.90
37460;DHT22;23318;50.966;5.284;2022-10-16T16:58:57;18.50;99.90
37460;DHT22;23318;50.966;5.284;2022-10-16T17:01:24;18.50;99.90
37460;DHT22;23318;50.966;5.284;2022-10-16T17:03:53;18.70;99.90
37460;DHT22;23318;50.966;5.284;2022-10-16T17:06:26;18.70;99.90
37460;DHT22;23318;50.966;5.284;2022-10-16T17:08:52;18.70;99.90
37460;DHT22;23318;50.966;5.284;2022-10-16T17:11:24;18.70;99.90
37460;DHT22;23318;50.966;5.284;2022-10-16T17:13:50;18.70;99.90
37460;DHT22;23318;50.966;5.284;2022-10-16T17:16:18;18.80;99.90
37460;DHT22;23318;50.966;5.284;2022-10-16T17:18:43;18.80;99.90
37460;DHT22;23318;50.966;5.284;2022-10-16T17:21:09;18.80;99.90
37460;DHT22;23318;50.966;5.284;2022-10-16T17:23:36;18.70;99.90
37460;DHT22;23318;50.966;5.284;2022-10-16T17:26:06;18.60;99.90
37460;DHT22;23318;50.966;5.284;2022-10-16T17:28:32;18.50;99.90
37460;DHT22;23318;50.966;5.284;2022-10-16T17:31:16;18.20;99.90
37460;DHT22;23318;50.966;5.284;2022-10-16T17:33:43;18.20;99.90
37460;DHT22;23318;50.966;5.284;2022-10-16T17:36:09;18.20;99.90
37460;DHT22;23318;50.966;5.284;2022-10-16T17:38:36;18.20;99.90
37460;DHT22;23318;50.966;5.284;2022-10-16T17:43:37;16.80;99.90
37460;DHT22;23318;50.966;5.284;2022-10-16T17:46:03;16.60;99.90
37460;DHT22;23318;50.966;5.284;2022-10-16T17:48:29;16.90;99.90
37460;DHT22;23318;50.966;5.284;2022-10-16T17:50:55;17.40;99.90